1968 11S:GEORGETTE (1968009S13071)


On this page: IBTrACS data - Map and Plots - Positions - Intensities - Original source data

Summary

Start Jan 9
End Feb 1
Basin SI
LMI 100 kt
Sources jtwc_sh
reunion
td9636
neumann
ds824_sh
In WMO? Yes
Previous storm 1968 10S (SI)
Previous in basin 1968 10S (SI)
Concurrent storms 1968 07S (SI)
1968 10S (SI)
1968 11S (SI)
1968 12S (SI)
1968 13P (SP)
1968 14S (SI)
1968 15S (SI)
1968 16S (SI)
1968 18S (SI)
1968 MISSING (WP)
1968 20P (SP)
1968 19P (SP)
Next in basin 1968 12S (SI)
Next storm 1968 12S (SI)

top of page IBTrACS Data: File Access

No storm imagery available

top of page Plots:

Map of storm track will not appear if FTP is down
Time series of cyclone Maximum Sustained Wind will not appear if FTP is down
Time series of cyclone Minimum Central Pressure will not appear if FTP is down

top of page Track Data:Position

jtwc_sh reunion td9636 neumann ds824_sh
Date Lat Lon Lat Lon Lat Lon Lat Lon Lat Lon
1968-01-09 06:00:00 -13.0 71.4 -13.0 71.4 -13.0 71.4
1968-01-09 12:00:00 -13.0 70.0 -13.0 70.0 -13.0 70.0
1968-01-09 18:00:00 -13.0 68.5 -13.0 68.5 -13.0 68.5
1968-01-10 00:00:00 -13.0 66.7 -13.0 66.7 -13.0 66.7
1968-01-10 06:00:00 -13.0 65.0 -13.0 63.8 -13.0 65.0 -13.0 63.8 -13.0 65.0
1968-01-10 12:00:00 -13.1 63.7 -13.1 63.0 -13.1 63.7 -13.1 63.0 -13.1 63.7
1968-01-10 18:00:00 -13.2 62.6 -13.2 62.2 -13.2 62.6 -13.2 62.2 -13.2 62.6
1968-01-11 00:00:00 -13.3 61.5 -13.5 61.3 -13.3 61.5 -13.5 61.3 -13.3 61.5
1968-01-11 06:00:00 -13.5 60.4 -13.7 60.4 -13.5 60.4 -13.7 60.4 -13.5 60.4
1968-01-11 12:00:00 -13.6 59.5 -13.9 59.8 -13.6 59.5 -13.9 59.8 -13.6 59.5
1968-01-11 18:00:00 -13.8 58.6 -14.0 59.0 -13.8 58.6 -14.0 59.0 -13.8 58.6
1968-01-12 00:00:00 -14.0 57.6 -14.0 58.3 -14.0 57.6 -14.0 58.3 -14.0 57.6
1968-01-12 06:00:00 -14.1 56.7 -14.0 57.8 -14.1 56.7 -14.0 57.8 -14.1 56.7
1968-01-12 12:00:00 -14.2 56.1 -14.1 57.0 -14.2 56.1 -14.1 57.0 -14.2 56.1
1968-01-12 18:00:00 -14.3 55.6 -14.2 56.1 -14.3 55.6 -14.2 56.1 -14.3 55.6
1968-01-13 00:00:00 -14.4 54.9 -14.2 55.2 -14.4 54.9 -14.2 55.2 -14.4 54.9
1968-01-13 06:00:00 -14.5 54.3 -14.2 54.3 -14.5 54.3 -14.2 54.3 -14.5 54.3
1968-01-13 12:00:00 -14.5 53.8 -14.2 53.9 -14.5 53.7 -14.2 53.9 -14.5 53.8
1968-01-13 18:00:00 -14.5 53.2 -14.1 53.2 -14.5 53.2 -14.1 53.2 -14.5 53.2
1968-01-14 00:00:00 -14.4 52.7 -14.0 52.8 -14.4 52.7 -14.0 52.8 -14.4 52.7
1968-01-14 06:00:00 -14.3 52.1 -14.0 52.0 -14.3 52.1 -14.0 52.0 -14.3 52.1
1968-01-14 12:00:00 -14.2 51.6 -13.9 51.8 -14.2 51.5 -13.9 51.8 -14.2 51.6
1968-01-14 18:00:00 -14.0 51.0 -13.8 51.2 -14.0 51.0 -13.8 51.2 -14.0 51.0
1968-01-15 00:00:00 -13.7 50.6 -13.7 50.9 -13.7 50.6 -13.7 50.9 -13.7 50.6
1968-01-15 06:00:00 -13.5 50.1 -13.4 50.3 -13.5 50.1 -13.4 50.3 -13.5 50.1
jtwc_sh reunion td9636 neumann ds824_sh
1968-01-15 12:00:00 -13.5 49.2 -13.2 49.7 -13.5 49.3 -13.2 49.7 -13.5 49.2
1968-01-15 18:00:00 -13.6 48.3 -13.2 48.8 -13.6 48.3 -13.2 48.8 -13.6 48.3
1968-01-16 00:00:00 -13.7 47.4 -13.5 47.8 -13.7 47.4 -13.5 47.8 -13.7 47.4
1968-01-16 06:00:00 -13.9 46.5 -13.8 47.0 -13.9 46.5 -13.8 47.0 -13.9 46.5
1968-01-16 12:00:00 -14.1 45.8 -13.9 46.5 -14.1 45.8 -13.9 46.5 -14.1 45.8
1968-01-16 18:00:00 -14.4 45.3 -14.0 46.0 -14.4 45.3 -14.0 46.0 -14.4 45.3
1968-01-17 00:00:00 -14.6 44.8 -14.1 45.5 -14.7 44.8 -14.1 45.5 -14.6 44.8
1968-01-17 06:00:00 -14.9 44.3 -14.2 45.0 -14.9 44.3 -14.2 45.0 -14.9 44.3
1968-01-17 12:00:00 -15.1 43.8 -14.7 44.2 -15.1 43.8 -14.7 44.2 -15.1 43.8
1968-01-17 18:00:00 -15.3 43.2 -14.9 43.2 -15.3 43.2 -14.9 43.2 -15.3 43.2
1968-01-18 00:00:00 -15.6 42.6 -15.0 42.5 -15.6 42.7 -15.0 42.5 -15.6 42.6
1968-01-18 06:00:00 -16.0 42.0 -15.3 41.7 -16.0 42.0 -15.3 41.7 -16.0 42.0
1968-01-18 12:00:00 -16.6 41.1 -15.6 40.9 -16.6 41.1 -15.6 40.9 -16.6 41.1
1968-01-18 18:00:00 -17.3 40.2 -16.1 39.7 -17.3 40.2 -16.1 39.7 -17.3 40.2
1968-01-19 00:00:00 -18.0 39.4 -16.7 38.7 -18.0 39.4 -16.7 38.7 -18.0 39.4
1968-01-19 06:00:00 -18.7 38.7 -17.3 37.8 -18.7 38.7 -17.3 37.8 -18.7 38.7
1968-01-19 12:00:00 -19.2 38.0 -18.0 37.3 -19.2 38.0 -18.0 37.2 -19.2 38.0
1968-01-19 18:00:00 -19.7 37.5 -18.6 37.1 -19.7 37.5 -18.6 37.1 -19.7 37.5
1968-01-20 00:00:00 -20.1 37.2 -19.0 36.9 -20.1 37.1 -19.0 36.9 -20.1 37.2
1968-01-20 06:00:00 -20.6 36.9 -19.7 36.7 -20.6 36.9 -19.7 36.7 -20.6 36.9
1968-01-20 12:00:00 -21.3 36.6 -20.2 36.2 -21.3 36.6 -20.2 36.2 -21.3 36.6
1968-01-20 18:00:00 -22.0 36.5 -21.0 36.1 -22.0 36.5 -21.0 36.1 -22.0 36.5
1968-01-21 00:00:00 -22.4 36.9 -22.0 36.4 -22.4 37.0 -22.0 36.4 -22.4 36.9
1968-01-21 06:00:00 -22.7 37.5 -22.7 36.8 -22.7 37.5 -22.7 36.8 -22.7 37.5
jtwc_sh reunion td9636 neumann ds824_sh
1968-01-21 12:00:00 -22.8 37.6 -23.0 36.9 -22.9 37.7 -23.0 36.9 -22.8 37.6
1968-01-21 18:00:00 -23.0 37.7 -23.1 36.9 -23.0 37.7 -23.1 36.9 -23.0 37.7
1968-01-22 00:00:00 -23.1 37.7 -23.6 36.7 -23.1 37.8 -23.6 36.7 -23.1 37.7
1968-01-22 06:00:00 -23.3 37.7 -23.5 36.2 -23.3 37.7 -23.5 36.2 -23.3 37.7
1968-01-22 12:00:00 -23.5 37.2 -23.4 36.2 -23.5 37.2 -23.4 36.2 -23.5 37.2
1968-01-22 18:00:00 -23.6 36.6 -23.2 36.2 -23.6 36.6 -23.2 36.2 -23.6 36.6
1968-01-23 00:00:00 -23.4 36.1 -23.0 36.2 -23.4 36.2 -23.0 36.2 -23.4 36.1
1968-01-23 06:00:00 -23.0 36.1 -22.8 36.2 -23.0 36.1 -22.8 36.2 -23.0 36.1
1968-01-23 12:00:00 -22.7 36.7 -23.5 36.5 -22.6 36.6 -23.5 36.5 -22.7 36.7
1968-01-23 18:00:00 -22.4 37.4 -23.3 37.1 -22.4 37.4 -23.3 37.1 -22.4 37.4
1968-01-24 00:00:00 -22.5 38.1 -23.3 37.8 -22.5 38.1 -23.3 37.8 -22.5 38.1
1968-01-24 06:00:00 -22.8 38.6 -22.2 38.1 -22.8 38.6 -22.2 38.1 -22.8 38.6
1968-01-24 12:00:00 -22.9 38.8 -22.2 38.7 -22.9 38.9 -22.2 38.7 -22.9 38.8
1968-01-24 18:00:00 -22.9 39.1 -22.1 39.0 -22.9 39.1 -22.1 39.0 -22.9 39.1
1968-01-25 00:00:00 -22.7 39.3 -22.0 39.5 -22.8 39.4 -22.0 39.5 -22.7 39.3
1968-01-25 06:00:00 -22.6 39.6 -21.9 39.9 -22.6 39.6 -21.9 39.9 -22.6 39.6
1968-01-25 12:00:00 -22.6 39.8 -21.8 40.2 -22.6 39.8 -21.8 40.2 -22.6 39.8
1968-01-25 18:00:00 -22.6 40.0 -21.8 40.8 -22.6 40.0 -21.8 40.8 -22.6 40.0
1968-01-26 00:00:00 -22.6 40.1 -21.8 41.1 -22.6 40.1 -21.8 41.1 -22.6 40.1
1968-01-26 06:00:00 -22.7 40.2 -22.0 41.4 -22.7 40.2 -22.0 41.4 -22.7 40.2
1968-01-26 12:00:00 -22.9 40.6 -22.1 41.6 -22.9 40.6 -22.1 41.6 -22.9 40.6
1968-01-26 18:00:00 -23.2 41.0 -22.6 41.7 -23.2 41.0 -22.6 41.7 -23.2 41.0
1968-01-27 00:00:00 -23.3 41.3 -22.8 41.8 -23.4 41.3 -22.8 41.8 -23.3 41.3
1968-01-27 06:00:00 -23.5 41.6 -23.1 41.9 -23.5 41.6 -23.1 41.9 -23.5 41.6
jtwc_sh reunion td9636 neumann ds824_sh
1968-01-27 12:00:00 -23.7 42.0 -23.7 42.1 -23.7 42.0 -23.7 42.1 -23.7 42.0
1968-01-27 18:00:00 -24.0 42.5 -24.0 42.5 -24.0 42.5 -24.0 42.5 -24.0 42.5
1968-01-28 00:00:00 -24.3 43.2 -24.1 42.9 -24.4 43.2 -24.1 42.9 -24.3 43.2
1968-01-28 06:00:00 -24.7 43.9 -24.5 43.2 -24.7 43.9 -24.5 43.2 -24.7 43.9
1968-01-28 12:00:00 -25.0 44.4 -24.8 43.8 -25.0 44.4 -24.8 43.8 -25.0 44.4
1968-01-28 18:00:00 -25.2 44.8 -24.9 44.1 -25.2 44.8 -24.9 44.1 -25.2 44.8
1968-01-29 00:00:00 -25.2 45.0 -25.1 44.8 -25.2 45.0 -25.1 44.8 -25.2 45.0
1968-01-29 06:00:00 -25.4 45.3 -25.2 45.2 -25.4 45.3 -25.2 45.2 -25.4 45.3
1968-01-29 12:00:00 -26.3 46.1 -25.7 46.0 -26.2 46.1 -25.7 46.0 -26.3 46.1
1968-01-29 18:00:00 -27.3 47.0 -26.0 47.0 -27.3 47.0 -26.0 47.0 -27.3 47.0
1968-01-30 00:00:00 -28.3 47.7 -26.5 48.0 -28.3 47.7 -26.5 48.0 -28.3 47.7
1968-01-30 06:00:00 -29.3 48.4 -27.0 49.0 -29.3 48.4 -27.0 49.0 -29.3 48.4
1968-01-30 12:00:00 -30.3 49.0 -27.7 49.8 -30.3 49.0 -27.7 49.8 -30.3 49.0
1968-01-30 18:00:00 -31.2 49.6 -28.2 50.5 -31.2 49.6 -28.2 50.5 -31.2 49.6
1968-01-31 00:00:00 -32.1 50.1 -29.0 51.1 -32.1 50.1 -29.0 51.1 -32.1 50.1
1968-01-31 06:00:00 -33.0 50.5 -30.0 52.0 -33.0 50.5 -30.0 52.0 -33.0 50.5
1968-01-31 12:00:00 -31.2 52.6 -31.2 52.6
1968-01-31 18:00:00 -33.0 52.9 -33.0 52.9
1968-02-01 00:00:00 -34.9 53.0 -34.9 53.0
1968-02-01 06:00:00 -36.9 53.2 -36.9 53.2

top of pageTrack Data:Intensity

jtwc_sh reunion td9636 neumann ds824_sh
Date Wind Pres Wind Pres Wind Pres Wind Pres Wind Pres
1968-01-09 06:00:00 25.
1968-01-09 12:00:00 25.
1968-01-09 18:00:00 35.
1968-01-10 00:00:00 35.
1968-01-10 06:00:00 25. 35.
1968-01-10 12:00:00 25. 35.
1968-01-10 18:00:00 30. 35.
1968-01-11 00:00:00 30. 35.
1968-01-11 06:00:00 35. 35.
1968-01-11 12:00:00 35. 35.
1968-01-11 18:00:00 35. 35.
1968-01-12 00:00:00 35. 35.
1968-01-12 06:00:00 35. 35.
1968-01-12 12:00:00 35. 35.
1968-01-12 18:00:00 35. 35.
1968-01-13 00:00:00 35. 35.
1968-01-13 06:00:00 35. 35.
1968-01-13 12:00:00 35. 35.
1968-01-13 18:00:00 35. 35.
1968-01-14 00:00:00 35. 35.
1968-01-14 06:00:00 35. 35.
1968-01-14 12:00:00 35. 35.
1968-01-14 18:00:00 35. 35.
1968-01-15 00:00:00 35. 35.
1968-01-15 06:00:00 35. 35.
jtwc_sh reunion td9636 neumann ds824_sh
1968-01-15 12:00:00 35. 35.
1968-01-15 18:00:00 35. 35.
1968-01-16 00:00:00 35. 35.
1968-01-16 06:00:00 35. 35.
1968-01-16 12:00:00 40. 35.
1968-01-16 18:00:00 40. 35.
1968-01-17 00:00:00 40. 35.
1968-01-17 06:00:00 40. 35.
1968-01-17 12:00:00 45. 35.
1968-01-17 18:00:00 45. 35.
1968-01-18 00:00:00 45. 35.
1968-01-18 06:00:00 45. 35.
1968-01-18 12:00:00 50. 35.
1968-01-18 18:00:00 45. 35.
1968-01-19 00:00:00 40. 35.
1968-01-19 06:00:00 40. 35.
1968-01-19 12:00:00 50. 35.
1968-01-19 18:00:00 60. 35.
1968-01-20 00:00:00 65. 35.
1968-01-20 06:00:00 70. 35.
1968-01-20 12:00:00 70. 35.
1968-01-20 18:00:00 70. 35.
1968-01-21 00:00:00 80. 35.
1968-01-21 06:00:00 80. 35.
jtwc_sh reunion td9636 neumann ds824_sh
1968-01-21 12:00:00 85. 35.
1968-01-21 18:00:00 85. 35.
1968-01-22 00:00:00 90. 35.
1968-01-22 06:00:00 90. 35.
1968-01-22 12:00:00 95. 35.
1968-01-22 18:00:00 100. 35.
1968-01-23 00:00:00 100. 35.
1968-01-23 06:00:00 100. 35.
1968-01-23 12:00:00 100. 35.
1968-01-23 18:00:00 100. 35.
1968-01-24 00:00:00 95. 35.
1968-01-24 06:00:00 90. 35.
1968-01-24 12:00:00 85. 35.
1968-01-24 18:00:00 80. 35.
1968-01-25 00:00:00 75. 35.
1968-01-25 06:00:00 70. 35.
1968-01-25 12:00:00 65. 35.
1968-01-25 18:00:00 60. 35.
1968-01-26 00:00:00 55. 35.
1968-01-26 06:00:00 50. 35.
1968-01-26 12:00:00 45. 35.
1968-01-26 18:00:00 40. 35.
1968-01-27 00:00:00 35. 35.
1968-01-27 06:00:00 35. 65.
jtwc_sh reunion td9636 neumann ds824_sh
1968-01-27 12:00:00 35. 65.
1968-01-27 18:00:00 30. 65.
1968-01-28 00:00:00 30. 65.
1968-01-28 06:00:00 30. 65.
1968-01-28 12:00:00 30. 65.
1968-01-28 18:00:00 30. 65.
1968-01-29 00:00:00 30. 65.
1968-01-29 06:00:00 30. 65.
1968-01-29 12:00:00 30. 65.
1968-01-29 18:00:00 30. 65.
1968-01-30 00:00:00 30. 65.
1968-01-30 06:00:00 30. 65.
1968-01-30 12:00:00 30. 65.
1968-01-30 18:00:00 30. 65.
1968-01-31 00:00:00 30. 65.
1968-01-31 06:00:00 30. 65.
1968-01-31 12:00:00 30.
1968-01-31 18:00:00 30.
1968-02-01 00:00:00 25.
1968-02-01 06:00:00 20.

top of page Links to source data

Source Source file Format
jtwc_sh bsh111968.txt ATCF
reunion WMO-Best-Tracks.txt:Line=7065:georgette WMO (old format)
td9636 cons_worldwide_trop_cyclone_18710101-19891231-005:Line=9315 TD 9636
neumann tracks.sh:Storm=207:GEORGETTE:BSH1168:Reunion HURDAT
ds824_sh s_hem.dat:1048:11S HURDAT